createdAt,value
2019-01-11T00:00:50.222Z,2.07
2019-01-11T00:03:22.739Z,3.80
2019-01-11T00:05:55.172Z,3.23
2019-01-11T00:08:27.598Z,3.50
2019-01-11T00:10:59.818Z,3.90
2019-01-11T00:13:32.146Z,3.43
2019-01-11T00:16:04.465Z,3.07
2019-01-11T00:18:36.753Z,5.30
2019-01-11T00:21:09.172Z,3.77
2019-01-11T00:23:41.570Z,3.27
2019-01-11T00:26:14.066Z,1.87
2019-01-11T00:28:46.389Z,3.07
2019-01-11T00:31:18.709Z,2.40
2019-01-11T00:33:51.004Z,2.53
2019-01-11T00:36:23.423Z,2.27
2019-01-11T00:38:55.715Z,2.10
2019-01-11T00:41:28.127Z,1.37
2019-01-11T00:44:00.436Z,1.90
2019-01-11T00:46:32.930Z,1.67
2019-01-11T00:49:05.550Z,1.10
2019-01-11T00:51:38.063Z,1.03
2019-01-11T00:54:10.519Z,1.07
2019-01-11T00:56:42.741Z,1.07
2019-01-11T00:59:15.158Z,4.73
2019-01-11T01:01:47.578Z,14.97
2019-01-11T01:04:20.001Z,15.27
2019-01-11T01:06:52.417Z,16.43
2019-01-11T01:09:24.840Z,10.47
2019-01-11T01:11:57.152Z,5.07
2019-01-11T01:14:29.469Z,1.40
2019-01-11T01:17:01.884Z,1.77
2019-01-11T01:19:34.112Z,1.13
2019-01-11T01:22:06.825Z,1.17
2019-01-11T01:24:39.148Z,1.17
2019-01-11T01:27:11.470Z,1.40
2019-01-11T01:29:43.760Z,1.37
2019-01-11T01:32:16.452Z,1.60
2019-01-11T01:34:48.955Z,2.10
2019-01-11T01:37:21.408Z,3.03
2019-01-11T01:39:53.857Z,0.90
2019-01-11T01:42:26.281Z,0.97
2019-01-11T01:44:58.602Z,1.10
2019-01-11T01:47:30.918Z,1.63
2019-01-11T01:50:03.337Z,1.43
2019-01-11T01:52:35.561Z,1.37
2019-01-11T01:55:08.974Z,2.07
2019-01-11T01:57:41.394Z,1.40
2019-01-11T02:00:17.758Z,1.53
2019-01-11T02:02:50.391Z,1.00
2019-01-11T02:05:22.805Z,1.10
2019-01-11T02:07:55.123Z,2.43
2019-01-11T02:10:27.442Z,1.30
2019-01-11T02:12:59.858Z,2.30
2019-01-11T02:15:32.285Z,1.20
2019-01-11T02:18:04.964Z,1.93
2019-01-11T02:20:37.297Z,2.00
2019-01-11T02:23:09.806Z,1.00
2019-01-11T02:25:46.133Z,1.50
2019-01-11T02:28:16.255Z,1.10
2019-01-11T02:30:48.572Z,2.20
2019-01-11T02:33:25.101Z,1.63
2019-01-11T02:35:55.021Z,1.93
2019-01-11T02:38:27.227Z,1.87
2019-01-11T02:40:59.557Z,1.93
2019-01-11T02:43:31.782Z,1.20
2019-01-11T02:46:04.320Z,1.20
2019-01-11T02:48:36.701Z,2.03
2019-01-11T02:51:09.008Z,1.57
2019-01-11T02:53:41.259Z,1.30
2019-01-11T02:56:13.681Z,1.73
2019-01-11T02:58:46.076Z,1.30
2019-01-11T03:01:18.401Z,1.73
2019-01-11T03:03:50.819Z,1.50
2019-01-11T03:06:23.262Z,1.70
2019-01-11T03:08:55.573Z,1.73
2019-01-11T03:11:27.895Z,1.60
2019-01-11T03:14:00.304Z,1.73
2019-01-11T03:16:32.601Z,1.87
2019-01-11T03:19:05.108Z,1.20
2019-01-11T03:21:37.437Z,1.23
2019-01-11T03:24:09.747Z,1.50
2019-01-11T03:26:42.245Z,1.93
2019-01-11T03:29:14.458Z,2.00
2019-01-11T03:31:46.677Z,1.13
2019-01-11T03:34:18.987Z,2.10
2019-01-11T03:36:51.316Z,1.17
2019-01-11T03:39:23.532Z,1.30
2019-01-11T03:42:02.900Z,2.00
2019-01-11T03:44:35.223Z,3.27
2019-01-11T03:47:07.743Z,3.50
2019-01-11T03:49:39.960Z,1.33
2019-01-11T03:52:12.482Z,1.47
2019-01-11T03:54:44.934Z,1.37
2019-01-11T03:57:17.454Z,3.23
2019-01-11T03:59:49.878Z,2.20
2019-01-11T04:02:22.469Z,2.97
2019-01-11T04:04:54.782Z,1.60
2019-01-11T04:07:27.284Z,1.50
2019-01-11T04:09:59.772Z,1.87
2019-01-11T04:12:32.095Z,1.33
2019-01-11T04:15:05.015Z,1.20
2019-01-11T04:17:37.230Z,1.43
2019-01-11T04:20:13.880Z,1.33
2019-01-11T04:22:52.295Z,1.30
2019-01-11T04:25:26.804Z,2.87
2019-01-11T04:27:59.018Z,1.40
2019-01-11T04:30:31.235Z,1.70
2019-01-11T04:33:03.539Z,1.67
2019-01-11T04:35:35.924Z,1.70
2019-01-11T04:38:08.511Z,2.63
2019-01-11T04:40:40.999Z,2.23
2019-01-11T04:43:13.321Z,2.47
2019-01-11T04:45:45.696Z,2.17
2019-01-11T04:48:18.107Z,3.13
2019-01-11T04:50:50.409Z,4.50
2019-01-11T04:53:22.773Z,5.00
2019-01-11T04:55:55.281Z,3.60
2019-01-11T04:58:27.487Z,2.47
2019-01-11T05:01:00.005Z,2.70
2019-01-11T05:03:32.426Z,3.43
2019-01-11T05:06:04.752Z,2.47
2019-01-11T05:08:37.061Z,2.43
2019-01-11T05:11:09.270Z,1.37
2019-01-11T05:13:43.304Z,2.97
2019-01-11T05:16:15.612Z,2.10
2019-01-11T05:18:47.815Z,2.10
2019-01-11T05:21:20.041Z,2.07
2019-01-11T05:23:52.424Z,2.50
2019-01-11T05:26:24.732Z,5.20
2019-01-11T05:28:57.022Z,3.63
2019-01-11T05:31:29.336Z,3.33
2019-01-11T05:34:01.537Z,3.93
2019-01-11T05:36:33.848Z,3.50
2019-01-11T05:39:08.828Z,3.77
2019-01-11T05:41:41.234Z,2.97
2019-01-11T05:44:13.659Z,2.60
2019-01-11T05:46:45.878Z,3.10
2019-01-11T05:49:18.238Z,30.57
2019-01-11T05:51:50.465Z,16.80
2019-01-11T05:54:23.232Z,11.40
2019-01-11T05:56:55.623Z,4.20
2019-01-11T05:59:27.843Z,4.57
2019-01-11T06:02:00.258Z,4.80
2019-01-11T06:04:43.802Z,3.80
2019-01-11T06:07:38.114Z,4.07
2019-01-11T06:10:14.313Z,4.13
2019-01-11T06:12:46.581Z,4.73
2019-01-11T06:15:19.077Z,7.33
2019-01-11T06:17:51.390Z,6.27
2019-01-11T06:20:29.994Z,5.60
2019-01-11T06:22:57.792Z,5.03
2019-01-11T06:25:30.102Z,6.43
2019-01-11T06:28:02.311Z,7.27
2019-01-11T06:30:34.628Z,10.90
2019-01-11T06:33:07.154Z,8.67
2019-01-11T06:35:39.363Z,7.17
2019-01-11T06:38:11.749Z,6.00
2019-01-11T06:40:44.269Z,10.83
2019-01-11T06:43:16.481Z,8.40
2019-01-11T06:45:48.703Z,8.47
2019-01-11T06:48:35.807Z,4.63
2019-01-11T06:51:08.394Z,9.93
2019-01-11T06:53:40.810Z,13.27
2019-01-11T06:56:13.116Z,8.23
2019-01-11T06:58:45.600Z,8.77
2019-01-11T07:01:17.882Z,9.53
2019-01-11T07:03:50.082Z,12.97
2019-01-11T07:06:22.298Z,12.27
2019-01-11T07:08:54.504Z,15.07
2019-01-11T07:11:26.712Z,8.13
2019-01-11T07:13:59.017Z,9.60
2019-01-11T07:16:31.239Z,9.23
2019-01-11T07:19:03.713Z,23.87
2019-01-11T07:21:36.250Z,39.97
2019-01-11T07:24:08.910Z,25.90
2019-01-11T07:26:41.396Z,65.23
2019-01-11T07:29:13.763Z,43.93
2019-01-11T07:31:48.253Z,55.67
2019-01-11T07:34:20.719Z,40.30
2019-01-11T07:36:54.980Z,33.70
2019-01-11T07:39:33.908Z,27.87
2019-01-11T07:42:06.848Z,31.87
2019-01-11T07:44:39.228Z,79.83
2019-01-11T07:47:11.603Z,26.17
2019-01-11T07:49:44.468Z,12.37
2019-01-11T07:52:17.026Z,14.70
2019-01-11T07:54:49.394Z,13.90
2019-01-11T07:57:21.881Z,10.80
2019-01-11T07:59:54.250Z,15.23
2019-01-11T08:02:26.623Z,12.87
2019-01-11T08:04:58.986Z,17.07
2019-01-11T08:07:31.564Z,16.03
2019-01-11T08:10:04.549Z,15.50
2019-01-11T08:12:37.027Z,15.47
2019-01-11T08:15:10.846Z,8.93
2019-01-11T08:17:43.335Z,12.03
2019-01-11T08:20:15.307Z,8.67
2019-01-11T08:22:47.526Z,9.47
2019-01-11T08:25:19.823Z,8.03
2019-01-11T08:27:52.355Z,17.47
2019-01-11T08:30:24.681Z,15.03
2019-01-11T08:32:57.025Z,17.87
2019-01-11T08:35:29.470Z,16.73
2019-01-11T08:38:01.685Z,12.03
2019-01-11T08:40:33.986Z,16.97
2019-01-11T08:43:06.625Z,13.70
2019-01-11T08:45:39.099Z,14.53
2019-01-11T08:48:11.675Z,14.00
2019-01-11T08:50:44.104Z,16.83
2019-01-11T08:53:16.702Z,12.90
2019-01-11T08:55:49.386Z,15.03
2019-01-11T08:58:21.928Z,19.07
2019-01-11T09:00:54.270Z,20.60
2019-01-11T09:03:26.942Z,22.60
2019-01-11T09:05:59.508Z,16.10
2019-01-11T09:08:32.113Z,16.23
2019-01-11T09:11:05.079Z,14.37
2019-01-11T09:13:37.469Z,13.50
2019-01-11T09:16:09.916Z,12.17
2019-01-11T09:18:50.499Z,13.03
2019-01-11T09:21:22.980Z,11.73
2019-01-11T09:23:55.480Z,10.50
2019-01-11T09:26:28.027Z,10.43
2019-01-11T09:29:00.700Z,14.10
2019-01-11T09:31:33.178Z,11.20
2019-01-11T09:34:05.850Z,12.23
2019-01-11T09:36:38.322Z,11.63
2019-01-11T09:39:11.934Z,16.00
2019-01-11T09:41:46.600Z,17.77
2019-01-11T09:44:19.175Z,18.57
2019-01-11T09:46:51.642Z,17.20
2019-01-11T09:49:24.056Z,15.60
2019-01-11T09:51:56.292Z,12.27
2019-01-11T09:54:28.842Z,12.03
2019-01-11T09:57:01.216Z,13.07
2019-01-11T09:59:35.185Z,13.30
2019-01-11T10:02:41.821Z,13.87
2019-01-11T10:05:14.892Z,15.77
2019-01-11T10:07:47.285Z,15.83
2019-01-11T10:10:19.706Z,17.00
2019-01-11T10:12:51.920Z,14.73
2019-01-11T10:15:24.467Z,20.97
2019-01-11T10:17:57.138Z,19.23
2019-01-11T10:20:29.770Z,13.77
2019-01-11T10:23:02.254Z,13.30
2019-01-11T10:25:34.701Z,20.10
2019-01-11T10:28:07.554Z,13.93
2019-01-11T10:30:40.013Z,15.93
2019-01-11T10:33:12.249Z,12.43
2019-01-11T10:35:44.750Z,14.53
2019-01-11T10:38:16.961Z,13.43
2019-01-11T10:40:49.420Z,18.00
2019-01-11T10:43:21.890Z,15.70
2019-01-11T10:45:54.362Z,16.77
2019-01-11T10:48:26.606Z,15.83
2019-01-11T10:50:59.004Z,14.77
2019-01-11T10:53:31.379Z,21.47
2019-01-11T10:56:03.723Z,14.17
2019-01-11T10:58:36.059Z,19.17
2019-01-11T11:01:08.604Z,15.83
2019-01-11T11:03:41.020Z,15.33
2019-01-11T11:06:14.867Z,15.37
2019-01-11T11:08:47.258Z,16.07
2019-01-11T11:11:19.724Z,15.70
2019-01-11T11:13:51.968Z,17.07
2019-01-11T11:16:24.508Z,16.37
2019-01-11T11:18:57.181Z,15.27
2019-01-11T11:21:34.694Z,16.60
2019-01-11T11:24:03.479Z,16.87
2019-01-11T11:26:35.852Z,13.83
2019-01-11T11:29:08.394Z,16.10
2019-01-11T11:31:40.866Z,19.27
2019-01-11T11:34:13.295Z,16.10
2019-01-11T11:36:45.679Z,20.20
2019-01-11T11:39:18.109Z,21.03
2019-01-11T11:41:50.588Z,18.00
2019-01-11T11:44:23.117Z,16.50
2019-01-11T11:46:55.737Z,18.27
2019-01-11T11:49:28.115Z,19.87
2019-01-11T11:52:00.479Z,15.40
2019-01-11T11:54:33.005Z,17.37
2019-01-11T11:57:05.585Z,14.23
2019-01-11T11:59:37.905Z,17.27
2019-01-11T12:02:10.380Z,28.57
2019-01-11T12:04:42.699Z,24.67
2019-01-11T12:07:15.368Z,19.23
2019-01-11T12:09:47.684Z,19.43
2019-01-11T12:12:20.250Z,23.90
2019-01-11T12:14:52.575Z,19.40
2019-01-11T12:17:25.044Z,23.53
2019-01-11T12:19:57.567Z,18.43
2019-01-11T12:22:30.241Z,22.30
2019-01-11T12:25:02.582Z,22.07
2019-01-11T12:27:35.047Z,24.37
2019-01-11T12:30:10.015Z,19.50
2019-01-11T12:32:42.572Z,14.43
2019-01-11T12:35:15.103Z,16.47
2019-01-11T12:37:47.477Z,18.23
2019-01-11T12:40:20.003Z,16.00
2019-01-11T12:42:52.376Z,16.87
2019-01-11T12:45:24.696Z,18.87
2019-01-11T12:47:57.174Z,19.07
2019-01-11T12:50:30.346Z,20.30
2019-01-11T12:53:02.722Z,17.60
2019-01-11T12:55:35.051Z,18.80
2019-01-11T12:58:07.608Z,21.80
2019-01-11T13:00:40.236Z,22.13
2019-01-11T13:03:12.595Z,21.73
2019-01-11T13:05:45.123Z,24.20
2019-01-11T13:08:17.609Z,22.27
2019-01-11T13:10:50.142Z,20.57
2019-01-11T13:13:22.518Z,22.00
2019-01-11T13:15:54.849Z,24.63
2019-01-11T13:18:27.316Z,20.27
2019-01-11T13:20:59.736Z,15.77
2019-01-11T13:23:32.316Z,18.60
2019-01-11T13:26:04.947Z,18.70
2019-01-11T13:28:37.317Z,21.47
2019-01-11T13:31:09.734Z,21.77
2019-01-11T13:33:42.209Z,19.13
2019-01-11T13:36:19.410Z,17.03
2019-01-11T13:38:51.883Z,18.50
2019-01-11T13:41:24.307Z,17.53
2019-01-11T13:43:56.680Z,20.67
2019-01-11T13:46:29.205Z,18.07
2019-01-11T13:49:01.710Z,22.17
2019-01-11T13:51:34.478Z,18.70
2019-01-11T13:54:07.711Z,17.00
2019-01-11T13:56:40.185Z,19.17
2019-01-11T13:59:12.553Z,19.13
2019-01-11T14:01:45.311Z,17.77
2019-01-11T14:04:17.675Z,18.80
2019-01-11T14:06:50.200Z,18.33
2019-01-11T14:09:22.572Z,15.47
2019-01-11T14:11:54.885Z,21.40
2019-01-11T14:14:27.446Z,20.00
2019-01-11T14:16:59.771Z,21.43
2019-01-11T14:19:32.247Z,17.90
2019-01-11T14:22:04.665Z,33.20
2019-01-11T14:24:37.140Z,20.60
2019-01-11T14:27:09.658Z,23.90
2019-01-11T14:29:42.328Z,23.33
2019-01-11T14:32:14.849Z,23.47
2019-01-11T14:34:47.418Z,20.13
2019-01-11T14:37:19.738Z,18.30
2019-01-11T14:39:52.206Z,22.63
2019-01-11T14:42:24.630Z,17.40
2019-01-11T14:44:57.007Z,23.87
2019-01-11T14:47:29.337Z,21.17
2019-01-11T14:50:01.706Z,21.30
2019-01-11T14:52:34.125Z,21.03
2019-01-11T14:55:06.883Z,21.67
2019-01-11T14:57:39.426Z,23.27
2019-01-11T15:00:17.330Z,21.43
2019-01-11T15:02:50.128Z,22.60
2019-01-11T15:05:23.309Z,21.17
2019-01-11T15:07:55.732Z,18.13
2019-01-11T15:10:28.096Z,19.23
2019-01-11T15:13:00.718Z,20.50
2019-01-11T15:15:33.293Z,22.67
2019-01-11T15:18:05.819Z,23.07
2019-01-11T15:20:38.292Z,18.60
2019-01-11T15:23:13.658Z,16.40
2019-01-11T15:25:44.802Z,18.90
2019-01-11T15:28:17.122Z,27.67
2019-01-11T15:30:49.499Z,44.73
2019-01-11T15:33:21.828Z,58.50
2019-01-11T15:35:54.197Z,50.57
2019-01-11T15:38:26.613Z,25.87
2019-01-11T15:40:59.185Z,21.47
2019-01-11T15:43:31.612Z,19.67
2019-01-11T15:46:14.927Z,18.33
2019-01-11T15:48:52.666Z,18.47
2019-01-11T15:51:29.322Z,18.93
2019-01-11T15:54:03.035Z,20.00
2019-01-11T15:56:35.492Z,20.17
2019-01-11T15:59:08.025Z,17.27
2019-01-11T16:01:40.404Z,20.00
2019-01-11T16:04:12.829Z,17.47
2019-01-11T16:06:45.579Z,21.00
2019-01-11T16:10:02.539Z,20.30
2019-01-11T16:13:27.748Z,19.53
2019-01-11T16:16:38.959Z,16.30
2019-01-11T16:19:11.319Z,18.13
2019-01-11T16:21:43.648Z,16.27
2019-01-11T16:24:15.998Z,15.07
2019-01-11T16:26:48.415Z,19.13
2019-01-11T16:29:20.880Z,16.80
2019-01-11T16:31:53.079Z,17.00
2019-01-11T16:34:25.299Z,16.83
2019-01-11T16:36:57.598Z,19.17
2019-01-11T16:39:30.174Z,17.53
2019-01-11T16:42:02.607Z,16.47
2019-01-11T16:44:35.066Z,22.97
2019-01-11T16:47:07.501Z,18.40
2019-01-11T16:49:39.914Z,17.70
2019-01-11T16:52:15.389Z,16.07
2019-01-11T16:54:46.430Z,18.23
2019-01-11T16:57:18.850Z,17.47
2019-01-11T16:59:51.217Z,20.83
2019-01-11T17:02:23.549Z,19.77
2019-01-11T17:04:56.010Z,21.90
2019-01-11T17:07:28.344Z,73.17
2019-01-11T17:10:00.725Z,35.70
2019-01-11T17:12:33.018Z,23.63
2019-01-11T17:15:08.238Z,29.07
2019-01-11T17:17:40.658Z,23.33
2019-01-11T17:20:17.031Z,26.43
2019-01-11T17:22:52.892Z,20.43
2019-01-11T17:25:23.638Z,22.77
2019-01-11T17:27:56.066Z,19.70
2019-01-11T17:30:28.439Z,18.57
2019-01-11T17:33:00.767Z,18.73
2019-01-11T17:35:33.233Z,15.80
2019-01-11T17:38:05.761Z,14.17
2019-01-11T17:40:38.230Z,17.57
2019-01-11T17:43:10.660Z,12.43
2019-01-11T17:45:43.113Z,17.37
2019-01-11T17:48:15.442Z,14.77
2019-01-11T17:50:48.059Z,17.93
2019-01-11T17:53:20.387Z,16.57
2019-01-11T17:55:52.939Z,16.70
2019-01-11T17:58:25.372Z,14.70
2019-01-11T18:00:57.812Z,14.10
2019-01-11T18:03:30.161Z,15.43
2019-01-11T18:06:03.657Z,17.03
2019-01-11T18:08:36.060Z,19.70
2019-01-11T18:11:08.617Z,20.57
2019-01-11T18:13:41.037Z,16.70
2019-01-11T18:16:13.506Z,18.03
2019-01-11T18:18:45.829Z,15.23
2019-01-11T18:21:18.232Z,14.57
2019-01-11T18:23:50.651Z,14.40
2019-01-11T18:26:23.129Z,15.27
2019-01-11T18:28:55.532Z,12.70
2019-01-11T18:31:27.941Z,12.13
2019-01-11T18:34:00.246Z,16.60
2019-01-11T18:36:32.833Z,24.70
2019-01-11T18:39:07.962Z,26.70
2019-01-11T18:41:40.535Z,23.30
2019-01-11T18:44:12.973Z,16.10
2019-01-11T18:46:45.440Z,17.00
2019-01-11T18:49:18.114Z,15.70
2019-01-11T18:51:50.601Z,13.93
2019-01-11T18:54:22.873Z,13.93
2019-01-11T18:56:55.462Z,17.73
2019-01-11T18:59:27.889Z,22.17
2019-01-11T19:02:00.257Z,27.27
2019-01-11T19:04:32.774Z,25.70
2019-01-11T19:07:05.484Z,25.53
2019-01-11T19:09:37.823Z,21.57
2019-01-11T19:12:11.825Z,22.93
2019-01-11T19:14:44.301Z,19.83
2019-01-11T19:17:16.674Z,18.43
2019-01-11T19:19:49.238Z,14.47
2019-01-11T19:22:21.605Z,17.17
2019-01-11T19:24:53.862Z,16.37
2019-01-11T19:27:26.418Z,15.03
2019-01-11T19:29:58.963Z,13.53
2019-01-11T19:32:31.312Z,18.67
2019-01-11T19:35:03.785Z,17.90
2019-01-11T19:37:36.161Z,18.67
2019-01-11T19:40:09.633Z,25.30
2019-01-11T19:42:42.198Z,24.10
2019-01-11T19:45:15.176Z,17.00
2019-01-11T19:47:47.768Z,17.13
2019-01-11T19:50:23.220Z,16.43
2019-01-11T19:52:55.965Z,14.53
2019-01-11T19:55:28.480Z,17.77
2019-01-11T19:58:00.703Z,10.70
2019-01-11T20:00:33.512Z,13.60
2019-01-11T20:03:06.039Z,11.03
2019-01-11T20:05:38.556Z,13.33
2019-01-11T20:08:11.378Z,10.97
2019-01-11T20:10:43.796Z,11.73
2019-01-11T20:13:17.683Z,13.20
2019-01-11T20:15:50.358Z,13.33
2019-01-11T20:18:22.776Z,11.43
2019-01-11T20:20:55.077Z,11.27
2019-01-11T20:23:34.661Z,13.20
2019-01-11T20:26:01.502Z,10.43
2019-01-11T20:28:33.820Z,11.87
2019-01-11T20:31:06.229Z,13.13
2019-01-11T20:33:38.447Z,12.57
2019-01-11T20:36:10.846Z,11.30
2019-01-11T20:38:43.155Z,11.53
2019-01-11T20:41:15.565Z,11.40
2019-01-11T20:43:47.888Z,10.17
2019-01-11T20:46:20.196Z,10.77
2019-01-11T20:48:52.713Z,10.33
2019-01-11T20:51:24.965Z,11.23
2019-01-11T20:53:57.264Z,12.07
2019-01-11T20:56:31.249Z,13.93
2019-01-11T20:59:03.568Z,13.80
2019-01-11T21:01:35.882Z,10.87
2019-01-11T21:04:08.305Z,14.23
2019-01-11T21:06:40.624Z,10.13
2019-01-11T21:09:13.037Z,11.10
2019-01-11T21:11:45.248Z,12.33
2019-01-11T21:14:17.466Z,11.47
2019-01-11T21:16:49.873Z,10.03
2019-01-11T21:19:22.193Z,9.17
2019-01-11T21:21:54.492Z,9.53
2019-01-11T21:24:27.008Z,12.17
2019-01-11T21:26:59.309Z,10.97
2019-01-11T21:29:31.624Z,8.37
2019-01-11T21:32:03.936Z,10.23
2019-01-11T21:34:36.144Z,8.47
2019-01-11T21:37:08.563Z,11.10
2019-01-11T21:39:40.883Z,8.27
2019-01-11T21:42:19.071Z,8.60
2019-01-11T21:44:47.313Z,10.73
2019-01-11T21:47:19.524Z,9.93
2019-01-11T21:49:51.736Z,10.70
2019-01-11T21:52:24.098Z,9.13
2019-01-11T21:54:56.306Z,10.87
2019-01-11T21:57:28.514Z,9.53
2019-01-11T22:00:00.823Z,9.73
2019-01-11T22:02:33.125Z,9.17
2019-01-11T22:05:06.142Z,9.80
2019-01-11T22:07:38.552Z,9.57
2019-01-11T22:10:13.360Z,11.37
2019-01-11T22:12:45.833Z,10.20
2019-01-11T22:15:20.673Z,9.37
2019-01-11T22:17:52.980Z,8.67
2019-01-11T22:20:25.287Z,8.57
2019-01-11T22:22:57.592Z,7.27
2019-01-11T22:25:30.837Z,8.73
2019-01-11T22:28:03.110Z,7.47
2019-01-11T22:30:35.423Z,8.90
2019-01-11T22:33:07.833Z,9.93
2019-01-11T22:35:40.053Z,6.13
2019-01-11T22:38:12.459Z,10.20
2019-01-11T22:40:44.848Z,7.77
2019-01-11T22:43:17.100Z,10.60
2019-01-11T22:45:49.460Z,9.67
2019-01-11T22:48:22.089Z,9.33
2019-01-11T22:50:54.343Z,8.77
2019-01-11T22:53:26.694Z,11.07
2019-01-11T22:55:58.896Z,8.00
2019-01-11T22:58:31.200Z,9.70
2019-01-11T23:01:43.059Z,7.87
2019-01-11T23:04:15.370Z,11.37
2019-01-11T23:07:37.808Z,10.00
2019-01-11T23:11:11.788Z,7.67
2019-01-11T23:13:44.299Z,9.77
2019-01-11T23:16:36.138Z,7.70
2019-01-11T23:19:08.562Z,8.80
2019-01-11T23:21:40.946Z,7.87
2019-01-11T23:24:17.364Z,9.77
2019-01-11T23:26:47.156Z,7.90
2019-01-11T23:29:19.369Z,10.20
2019-01-11T23:31:51.583Z,13.17
2019-01-11T23:34:23.802Z,10.27
2019-01-11T23:36:56.108Z,13.60
2019-01-11T23:39:28.316Z,10.10
2019-01-11T23:42:00.486Z,10.20
2019-01-11T23:44:32.895Z,11.50
2019-01-11T23:47:05.252Z,6.67
2019-01-11T23:49:37.462Z,10.03
2019-01-11T23:52:09.979Z,11.67
2019-01-11T23:54:42.180Z,7.27
2019-01-11T23:57:14.338Z,9.93
2019-01-11T23:59:46.536Z,8.37
